• Join FlightAware (Why Join?)
  • Login
  • US Flag 
03:51PM EDT


 

Airport Tracker/Info


-or-


 

Live Flight TrackerFlight Track Log ✈ XA-ASH ✈ 02-Sep-2013 ✈ KMIA - MMTO / TLC

Flight Track Log - Related Links

Times and Time Zones

All times are in EDT time to prevent confusion due to time zone crossing. See the XA-ASH flight status page for this flight to view local times or setup timezone preferences in your user account.

Time Position Orientation Groundspeed Altitude Reporting Facility
EDT Latitude Longitude Course Direction KTS MPH feet Rate Location/Type
10:50PM 25.7961 -80.2697 111° Southeast 175 201 800  Level Miami Center
10:51PM 25.7747 -80.2092 111° Southeast 177 204 4,000 1,920 Climbing Miami Center
10:52PM 25.7264 -80.2125 184° South 144 166 5,500 1,320 Climbing Miami Center
10:53PM 25.6853 -80.2828 237° Southwest 170 196 7,100 1,980 Climbing Miami Center
10:54PM 25.6417 -80.3600 238° Southwest 238 274 9,400 2,280 Climbing Miami Center
10:55PM 25.5894 -80.4458 236° Southwest 294 338 11,700 1,800 Climbing Miami Center
10:57PM 25.5369 -80.5364 237° Southwest 323 372 13,700 1,980 Climbing Miami Center
10:58PM 25.4739 -80.6403 236° Southwest 323 372 16,500 2,340 Climbing Miami Center
10:59PM 25.4364 -80.7083 239° Southwest 305 351 18,600 1,860 Climbing Miami Center
11:00PM 25.3908 -80.7803 235° Southwest 300 345 20,400 1,680 Climbing Miami Center
11:01PM 25.3469 -80.8547 237° Southwest 300 345 22,000 1,620 Climbing Miami Center
11:02PM 25.3008 -80.9336 237° Southwest 300 345 23,600 1,560 Climbing Miami Center
11:03PM 25.2528 -81.0125 236° Southwest 300 345 25,100 1,500 Climbing Miami Center
11:04PM 25.2044 -81.0936 237° Southwest 305 351 26,700 1,560 Climbing Miami Center
11:05PM 25.1561 -81.1767 237° Southwest 316 364 28,200 1,320 Climbing Miami Center
11:06PM 25.1036 -81.2597 235° Southwest 323 372 29,400 1,080 Climbing Miami Center
11:07PM 25.0508 -81.3450 236° Southwest 328 377 30,400 960 Climbing Miami Center
11:08PM 24.9981 -81.4322 236° Southwest 339 390 31,400 960 Climbing Miami Center
11:09PM 24.9431 -81.5242 237° Southwest 350 403 32,400 960 Climbing Miami Center
11:10PM 24.8878 -81.6158 236° Southwest 360 414 33,400 900 Climbing Miami Center
11:11PM 24.8392 -81.7056 239° Southwest 355 409 34,300 900 Climbing Miami Center
11:12PM 24.7817 -81.7994 236° Southwest 360 414 35,300 960 Climbing Miami Center
11:13PM 24.7181 -81.8906 232° Southwest 370 426 36,300 900 Climbing Miami Center
11:14PM 24.6628 -81.9819 236° Southwest 370 426 37,200 840 Climbing Miami Center
11:15PM 24.6094 -82.0711 237° Southwest 365 420 38,000 420 Climbing Miami Center
11:16PM 24.5497 -82.1644 235° Southwest 370 426 38,100 300 Climbing Miami Center
11:17PM 24.4942 -82.2581 237° Southwest 370 426 38,700 540 Climbing Miami Center
11:18PM 24.4386 -82.3536 237° Southwest 370 426 39,200 540 Climbing Miami Center
11:19PM 24.3767 -82.4467 234° Southwest 376 433 39,800 300 Climbing Miami Center
11:20PM 24.3167 -82.5397 235° Southwest 376 433 39,900  Climbing Miami Center
11:21PM 24.2586 -82.6394 237° Southwest 382 440 39,900  Level Miami Center
11:22PM 24.1964 -82.7389 236° Southwest 393 452 39,900  Level Miami Center
11:23PM 24.1339 -82.8383 235° Southwest 398 458 39,900  Level Miami Center
11:24PM 24.0692 -82.9397 235° Southwest 406 467 39,900  Level Miami Center
11:25PM 24.0147 -83.0464 241° Southwest 412 474 39,900  Level Miami Center
11:26PM 23.9600 -83.1594 242° Southwest 417 480 39,900  Level Miami Center
11:27PM 23.9092 -83.2703 243° Southwest 417 480 39,900  Level Miami Center
11:28PM 23.8625 -83.3858 246° West 417 480 39,900  Level Miami Center
11:29PM 23.8097 -83.4944 242° Southwest 417 480 39,900  Level Miami Center
11:31PM 23.7220 -83.6809 243° Southwest  Level FlightAware Approximate
11:38PM 23.3734 -84.4455 244° Southwest  Level FlightAware Approximate
11:39PM 23.3250 -84.5553 244° Southwest  Level FlightAware Approximate
11:40PM 23.2765 -84.6649 244° Southwest  Level FlightAware Approximate
11:41PM 23.2280 -84.7746 244° Southwest  Level FlightAware Approximate
11:42PM 23.1793 -84.8841 244° Southwest  Level FlightAware Approximate
11:43PM 23.1302 -84.9933 244° Southwest  Level FlightAware Approximate
11:44PM 23.0804 -85.1022 244° Southwest  Level FlightAware Approximate
11:45PM 23.0306 -85.2109 244° Southwest  Level FlightAware Approximate
11:46PM 22.9806 -85.3196 243° Southwest  Level FlightAware Approximate
11:47PM 22.9306 -85.4282 243° Southwest  Level FlightAware Approximate
11:48PM 22.8805 -85.5367 243° Southwest  Level FlightAware Approximate
11:49PM 22.8305 -85.6452 243° Southwest  Level FlightAware Approximate
11:50PM 22.7806 -85.7537 243° Southwest  Level FlightAware Approximate
11:51PM 22.7305 -85.8621 243° Southwest  Level FlightAware Approximate
11:52PM 22.6804 -85.9705 243° Southwest  Level FlightAware Approximate
11:53PM 22.6318 -86.0796 245° Southwest  Level FlightAware Approximate
11:54PM 22.5837 -86.1889 245° Southwest  Level FlightAware Approximate
11:55PM 22.5356 -86.2982 245° Southwest  Level FlightAware Approximate
11:56PM 22.4874 -86.4074 244° Southwest  Level FlightAware Approximate
11:57PM 22.4377 -86.5157 244° Southwest  Level FlightAware Approximate
11:58PM 22.3877 -86.6239 243° Southwest  Level FlightAware Approximate
11:59PM 22.3370 -86.7317 243° Southwest  Level FlightAware Approximate
12:00AM 22.2863 -86.8394 243° Southwest  Level FlightAware Approximate
12:01AM 22.2354 -86.9470 243° Southwest  Level FlightAware Approximate
12:02AM 22.1845 -87.0545 243° Southwest  Level FlightAware Approximate
12:03AM 22.1335 -87.1619 243° Southwest  Level FlightAware Approximate
12:04AM 22.0825 -87.2693 243° Southwest  Level FlightAware Approximate
12:05AM 22.0314 -87.3766 243° Southwest  Level FlightAware Approximate
12:06AM 21.9802 -87.4838 243° Southwest  Level FlightAware Approximate
12:07AM 21.9289 -87.5909 243° Southwest  Level FlightAware Approximate
12:08AM 21.8776 -87.6980 243° Southwest  Level FlightAware Approximate
12:09AM 21.8262 -87.8050 243° Southwest  Level FlightAware Approximate
12:10AM 21.7747 -87.9119 243° Southwest  Level FlightAware Approximate
12:11AM 21.7232 -88.0187 243° Southwest  Level FlightAware Approximate
12:12AM 21.6709 -88.1251 242° Southwest  Level FlightAware Approximate
12:13AM 21.6180 -88.2310 242° Southwest  Level FlightAware Approximate
12:14AM 21.5651 -88.3370 242° Southwest  Level FlightAware Approximate
12:15AM 21.5121 -88.4428 242° Southwest  Level FlightAware Approximate
12:16AM 21.4594 -88.5487 243° Southwest  Level FlightAware Approximate
12:17AM 21.4087 -88.6558 243° Southwest  Level FlightAware Approximate
12:18AM 21.3580 -88.7628 243° Southwest  Level FlightAware Approximate
12:19AM 21.3072 -88.8697 243° Southwest  Level FlightAware Approximate
12:20AM 21.2563 -88.9766 243° Southwest  Level FlightAware Approximate
12:21AM 21.2054 -89.0834 243° Southwest  Level FlightAware Approximate
12:22AM 21.1544 -89.1900 243° Southwest  Level FlightAware Approximate
12:23AM 21.1033 -89.2967 243° Southwest  Level FlightAware Approximate
12:24AM 21.0522 -89.4032 243° Southwest  Level FlightAware Approximate
12:25AM 21.0009 -89.5097 243° Southwest  Level FlightAware Approximate
12:26AM 20.9497 -89.6161 243° Southwest  Level FlightAware Approximate
12:27AM 20.9135 -89.7287 255° West  Level FlightAware Approximate
12:28AM 20.8842 -89.8443 255° West  Level FlightAware Approximate
12:29AM 20.8549 -89.9597 255° West  Level FlightAware Approximate
12:30AM 20.8256 -90.0752 255° West  Level FlightAware Approximate
12:31AM 20.7961 -90.1905 255° West  Level FlightAware Approximate
12:32AM 20.7666 -90.3059 255° West  Level FlightAware Approximate
12:33AM 20.7370 -90.4212 255° West  Level FlightAware Approximate
12:34AM 20.7064 -90.5361 253° West  Level FlightAware Approximate
12:35AM 20.6737 -90.6505 253° West  Level FlightAware Approximate
12:36AM 20.6416 -90.7649 254° West  Level FlightAware Approximate
12:37AM 20.6107 -90.8797 254° West  Level FlightAware Approximate
12:38AM 20.5798 -90.9945 254° West  Level FlightAware Approximate
12:39AM 20.5489 -91.1092 254° West  Level FlightAware Approximate
12:40AM 20.5180 -91.2240 254° West  Level FlightAware Approximate
12:41AM 20.4874 -91.3388 254° West  Level FlightAware Approximate
12:42AM 20.4566 -91.4535 254° West  Level FlightAware Approximate
12:43AM 20.4258 -91.5682 254° West  Level FlightAware Approximate
12:44AM 20.3950 -91.6829 254° West  Level FlightAware Approximate
12:45AM 20.3640 -91.7975 254° West  Level FlightAware Approximate
12:46AM 20.3330 -91.9120 254° West  Level FlightAware Approximate
12:47AM 20.3018 -92.0266 254° West  Level FlightAware Approximate
12:48AM 20.2761 -92.1420 255° West  Level FlightAware Approximate
12:49AM 20.2462 -92.2569 254° West  Level FlightAware Approximate
12:50AM 20.2162 -92.3716 254° West  Level FlightAware Approximate
12:51AM 20.1862 -92.4864 255° West  Level FlightAware Approximate
12:52AM 20.1563 -92.6012 255° West  Level FlightAware Approximate
12:53AM 20.1264 -92.7159 254° West  Level FlightAware Approximate
12:54AM 20.0961 -92.8305 253° West  Level FlightAware Approximate
12:55AM 20.0637 -92.9445 253° West  Level FlightAware Approximate
12:56AM 20.0313 -93.0584 253° West  Level FlightAware Approximate
12:57AM 19.9988 -93.1722 253° West  Level FlightAware Approximate
12:58AM 19.9662 -93.2860 253° West  Level FlightAware Approximate
12:59AM 19.9336 -93.3998 253° West  Level FlightAware Approximate
01:00AM 19.9009 -93.5135 253° West  Level FlightAware Approximate
01:01AM 19.8693 -93.6276 254° West  Level FlightAware Approximate
01:02AM 19.8377 -93.7416 254° West  Level FlightAware Approximate
01:03AM 19.8061 -93.8556 254° West  Level FlightAware Approximate
01:04AM 19.7743 -93.9695 254° West  Level FlightAware Approximate
01:05AM 19.7425 -94.0834 253° West  Level FlightAware Approximate
01:06AM 19.7106 -94.1972 253° West  Level FlightAware Approximate
01:07AM 19.6786 -94.3110 253° West  Level FlightAware Approximate
01:08AM 19.6466 -94.4248 253° West  Level FlightAware Approximate
01:09AM 19.6145 -94.5385 253° West  Level FlightAware Approximate
01:10AM 19.5823 -94.6522 253° West  Level FlightAware Approximate
01:11AM 19.5501 -94.7658 253° West  Level FlightAware Approximate
01:12AM 19.5178 -94.8793 253° West  Level FlightAware Approximate
01:13AM 19.4854 -94.9929 253° West  Level FlightAware Approximate
01:14AM 19.4523 -95.1061 253° West  Level FlightAware Approximate
01:15AM 19.4191 -95.2194 253° West  Level FlightAware Approximate
01:16AM 19.3859 -95.3325 253° West  Level FlightAware Approximate
01:17AM 19.3526 -95.4457 253° West  Level FlightAware Approximate
01:18AM 19.3192 -95.5587 253° West  Level FlightAware Approximate
01:19AM 19.2858 -95.6718 253° West  Level FlightAware Approximate
01:20AM 19.2522 -95.7848 253° West  Level FlightAware Approximate
01:21AM 19.2187 -95.8977 253° West  Level FlightAware Approximate
01:22AM 19.1850 -96.0106 252° West  Level FlightAware Approximate
01:23AM 19.1513 -96.1235 252° West  Level FlightAware Approximate
01:24AM 19.1343 -96.2389 271° West  Level FlightAware Approximate
01:25AM 19.1362 -96.3572 271° West  Level FlightAware Approximate
01:26AM 19.1380 -96.4755 271° West  Level FlightAware Approximate
01:27AM 19.1398 -96.5939 271° West  Level FlightAware Approximate
01:28AM 19.1415 -96.7122 271° West  Level FlightAware Approximate
01:29AM 19.1431 -96.8305 271° West  Level FlightAware Approximate
01:30AM 19.1446 -96.9489 271° West  Level FlightAware Approximate
01:31AM 19.1461 -97.0672 271° West  Level FlightAware Approximate
01:32AM 19.1475 -97.1856 271° West  Level FlightAware Approximate
01:33AM 19.1488 -97.3039 271° West  Level FlightAware Approximate
01:34AM 19.1500 -97.4222 270° West  Level FlightAware Approximate
01:35AM 19.1501 -97.5406 270° West  Level FlightAware Approximate
01:36AM 19.1501 -97.6589 270° West  Level FlightAware Approximate
01:37AM 19.1501 -97.7773 270° West  Level FlightAware Approximate
01:38AM 19.1500 -97.8957 270° West  Level FlightAware Approximate
01:39AM 19.1501 -98.0140 270° West  Level FlightAware Approximate
01:40AM 19.1500 -98.1324 270° West  Level FlightAware Approximate
01:41AM 19.1500 -98.2507 270° West  Level FlightAware Approximate
01:42AM 19.1486 -98.3686 233° Southwest  Level FlightAware Approximate
01:43AM 19.0812 -98.4630 233° Southwest  Level FlightAware Approximate
01:44AM 19.0093 -98.5528 235° Southwest  Level FlightAware Approximate
01:45AM 18.9449 -98.6495 235° Southwest  Level FlightAware Approximate
01:46AM 18.8804 -98.7461 235° Southwest  Level FlightAware Approximate
01:47AM 18.8182 -98.8442 237° Southwest  Level FlightAware Approximate
01:48AM 18.7690 -98.9490 253° West  Level FlightAware Approximate
01:49AM 18.7358 -99.0617 253° West  Level FlightAware Approximate
01:50AM 18.7026 -99.1745 253° West  Level FlightAware Approximate
01:51AM 18.6952 -99.2643 335° Northwest  Level FlightAware Approximate
01:52AM 18.7971 -99.3127 338° Northwest  Level FlightAware Approximate
01:53AM 18.9011 -99.3560 338° Northwest  Level FlightAware Approximate
01:54AM 19.0048 -99.4003 337° Northwest  Level FlightAware Approximate
01:55AM 19.1079 -99.4461 337° Northwest  Level FlightAware Approximate
01:56AM 19.2036 -99.5018 335° Northwest  Level FlightAware Approximate
01:57AM 19.3060 -99.5491 339° North  Level FlightAware Approximate
01:58AM 19.3371 -99.5660 North  Level Estimated
01:59AM 19.3371 -99.5660 North  Level Estimated
02:00AM 19.3371 -99.5660 North  Level Estimated
02:01AM 19.3371 -99.5660 North  Level Estimated
02:02AM 19.3371 -99.5660 North  Level Estimated
02:03AM 19.3371 -99.5660 North  Level Estimated
02:04AM 19.3371 -99.5660 North  Level Estimated
02:05AM 19.3371 -99.5660 North  Level Estimated
02:06AM 19.3371 -99.5660 North  Level Estimated
02:07AM 19.3371 -99.5660 North  Level Estimated
02:08AM 19.3371 -99.5660 North  Level Estimated
02:09AM 19.3371 -99.5660 North  Level Estimated
02:10AM 19.3371 -99.5660 North  Level Estimated
02:11AM 19.3371 -99.5660 North  Level Estimated
02:12AM 19.3371 -99.5660 North  Level Estimated
02:13AM 19.3371 -99.5660 North  Level Estimated
02:14AM 19.3371 -99.5660 North  Level Estimated
02:15AM 19.3371 -99.5660 North  Level Estimated